createdAt,value
2022-09-07T00:01:00.357Z,1.73
2022-09-07T00:04:09.582Z,2.10
2022-09-07T00:07:18.123Z,1.80
2022-09-07T00:10:27.247Z,2.13
2022-09-07T00:13:38.684Z,2.00
2022-09-07T00:16:49.300Z,1.40
2022-09-07T00:19:57.892Z,1.87
2022-09-07T00:23:06.323Z,1.57
2022-09-07T00:26:19.259Z,2.20
2022-09-07T00:29:27.556Z,1.70
2022-09-07T00:32:37.187Z,1.67
2022-09-07T00:35:46.371Z,1.80
2022-09-07T00:38:55.346Z,1.80
2022-09-07T00:42:03.541Z,2.00
2022-09-07T00:45:18.578Z,1.80
2022-09-07T00:48:37.364Z,1.67
2022-09-07T00:51:53.553Z,1.90
2022-09-07T00:55:09.766Z,1.60
2022-09-07T00:58:19.847Z,2.13
2022-09-07T01:01:28.614Z,1.93
2022-09-07T01:04:40.737Z,1.77
2022-09-07T01:07:49.498Z,1.63
2022-09-07T01:11:01.437Z,1.70
2022-09-07T01:14:16.149Z,1.70
2022-09-07T01:17:37.519Z,1.67
2022-09-07T01:21:09.226Z,1.60
2022-09-07T01:25:01.046Z,1.43
2022-09-07T01:28:20.266Z,1.43
2022-09-07T01:31:43.526Z,1.83
2022-09-07T01:34:55.756Z,1.57
2022-09-07T01:38:16.037Z,1.60
2022-09-07T01:41:32.105Z,1.63
2022-09-07T01:44:48.297Z,1.73
2022-09-07T01:48:01.511Z,1.50
2022-09-07T01:51:09.779Z,1.63
2022-09-07T01:54:28.360Z,1.50
2022-09-07T01:57:44.734Z,1.10
2022-09-07T02:01:01.874Z,1.13
2022-09-07T02:04:16.073Z,1.20
2022-09-07T02:07:31.668Z,0.97
2022-09-07T02:10:47.430Z,1.30
2022-09-07T02:14:02.220Z,1.43
2022-09-07T02:17:19.177Z,1.20
2022-09-07T02:20:34.453Z,1.20
2022-09-07T02:23:51.776Z,0.87
2022-09-07T02:27:05.107Z,1.20
2022-09-07T02:30:14.693Z,0.93
2022-09-07T02:33:24.812Z,0.90
2022-09-07T02:36:41.072Z,0.80
2022-09-07T02:39:50.164Z,1.07
2022-09-07T02:43:02.223Z,1.00
2022-09-07T02:46:31.709Z,0.83
2022-09-07T02:50:38.988Z,0.70
2022-09-07T02:54:10.554Z,0.90
2022-09-07T02:57:33.260Z,0.93
2022-09-07T03:00:56.661Z,0.80
2022-09-07T03:04:14.885Z,0.97
2022-09-07T03:07:33.560Z,0.80
2022-09-07T03:10:44.989Z,0.90
2022-09-07T03:13:53.263Z,1.00
2022-09-07T03:17:02.746Z,0.90
2022-09-07T03:20:12.138Z,0.90
2022-09-07T03:23:21.801Z,0.80
2022-09-07T03:26:30.104Z,0.80
2022-09-07T03:29:41.876Z,0.90
2022-09-07T03:32:50.495Z,0.90
2022-09-07T03:36:02.341Z,1.00
2022-09-07T03:39:14.241Z,0.90
2022-09-07T03:42:22.996Z,0.97
2022-09-07T03:45:31.239Z,0.80
2022-09-07T03:48:40.009Z,1.00
2022-09-07T03:51:48.393Z,0.90
2022-09-07T03:54:58.265Z,1.00
2022-09-07T03:58:06.814Z,0.97
2022-09-07T04:01:18.969Z,1.10
2022-09-07T04:04:27.436Z,0.90
2022-09-07T04:07:35.750Z,0.90
2022-09-07T04:10:45.384Z,0.90
2022-09-07T04:13:53.753Z,0.97
2022-09-07T04:17:02.194Z,1.20
2022-09-07T04:20:11.920Z,0.90
2022-09-07T04:23:21.036Z,1.10
2022-09-07T04:26:34.308Z,0.90
2022-09-07T04:29:42.550Z,0.97
2022-09-07T04:32:51.556Z,0.97
2022-09-07T04:36:02.251Z,1.37
2022-09-07T04:39:12.337Z,1.10
2022-09-07T04:42:22.595Z,1.23
2022-09-07T04:45:31.226Z,1.20
2022-09-07T04:48:39.798Z,1.30
2022-09-07T04:51:48.747Z,1.10
2022-09-07T04:54:57.044Z,1.03
2022-09-07T04:58:07.981Z,1.10
2022-09-07T05:01:20.032Z,1.20
2022-09-07T05:04:28.405Z,0.77
2022-09-07T05:07:37.012Z,0.97
2022-09-07T05:10:53.094Z,1.10
2022-09-07T05:14:04.915Z,1.20
2022-09-07T05:17:13.147Z,1.00
2022-09-07T05:24:11.874Z,0.70
2022-09-07T05:27:22.028Z,1.00
2022-09-07T05:37:29.425Z,1.23
2022-09-07T05:40:40.683Z,2.00
2022-09-07T05:47:21.447Z,1.60
2022-09-07T05:50:29.741Z,1.83
2022-09-07T05:53:41.953Z,0.97
2022-09-07T05:56:53.892Z,0.87
2022-09-07T06:00:02.396Z,0.90
2022-09-07T06:03:21.946Z,0.83
2022-09-07T06:06:30.489Z,0.87
2022-09-07T06:13:07.348Z,0.63
2022-09-07T06:16:18.396Z,0.80
2022-09-07T06:19:28.437Z,0.70
2022-09-07T06:22:37.619Z,0.60
2022-09-07T06:25:50.036Z,0.70
2022-09-07T06:28:59.103Z,0.70
2022-09-07T06:35:37.086Z,0.80
2022-09-07T06:38:46.979Z,0.60
2022-09-07T06:41:58.670Z,0.77
2022-09-07T06:45:12.264Z,0.70
2022-09-07T06:48:20.959Z,1.00
2022-09-07T06:51:32.018Z,0.60
2022-09-07T06:55:02.127Z,0.80
2022-09-07T06:58:10.425Z,0.93
2022-09-07T07:01:21.066Z,0.60
2022-09-07T07:04:29.412Z,0.70
2022-09-07T07:07:39.275Z,0.70
2022-09-07T07:10:47.955Z,0.50
2022-09-07T07:13:56.125Z,0.60
2022-09-07T07:17:04.764Z,0.50
2022-09-07T07:20:13.555Z,0.50
2022-09-07T07:23:23.180Z,0.50
2022-09-07T07:26:32.600Z,0.60
2022-09-07T07:29:40.739Z,0.57
2022-09-07T07:32:49.990Z,0.60
2022-09-07T07:36:13.665Z,0.67
2022-09-07T07:42:52.416Z,0.50
2022-09-07T07:46:05.440Z,0.70
2022-09-07T07:49:14.335Z,0.80
2022-09-07T07:55:52.460Z,0.80
2022-09-07T07:59:01.579Z,0.70
2022-09-07T08:02:16.959Z,0.47
2022-09-07T08:05:25.891Z,0.70
2022-09-07T08:08:34.551Z,0.50
2022-09-07T08:11:44.036Z,0.70
2022-09-07T08:14:54.049Z,0.43
2022-09-07T08:18:02.464Z,0.67
2022-09-07T08:21:15.034Z,0.60
2022-09-07T08:24:23.285Z,0.53
2022-09-07T08:27:33.150Z,0.70
2022-09-07T08:30:41.302Z,0.90
2022-09-07T08:33:52.504Z,0.70
2022-09-07T08:37:00.842Z,0.70
2022-09-07T08:40:16.770Z,0.70
2022-09-07T08:43:49.277Z,0.80
2022-09-07T08:47:04.448Z,0.70
2022-09-07T08:50:21.895Z,0.73
2022-09-07T08:53:30.792Z,0.70
2022-09-07T08:57:20.554Z,0.90
2022-09-07T09:00:17.626Z,0.83
2022-09-07T09:03:32.464Z,0.67
2022-09-07T09:06:56.637Z,0.90
2022-09-07T09:10:27.336Z,0.73
2022-09-07T09:13:52.326Z,0.90
2022-09-07T09:17:10.640Z,0.70
2022-09-07T09:20:27.495Z,0.80
2022-09-07T09:23:41.913Z,0.90
2022-09-07T09:26:57.751Z,0.60
2022-09-07T09:30:15.264Z,0.93
2022-09-07T09:33:27.435Z,0.83
2022-09-07T09:36:43.017Z,0.80
2022-09-07T09:40:02.771Z,0.80
2022-09-07T09:43:26.258Z,0.80
2022-09-07T09:46:38.723Z,0.70
2022-09-07T09:49:48.935Z,0.70
2022-09-07T09:52:59.339Z,0.80
2022-09-07T09:56:09.002Z,0.93
2022-09-07T10:06:37.347Z,0.70
2022-09-07T10:09:52.141Z,0.70
2022-09-07T10:13:00.738Z,0.80
2022-09-07T10:16:12.067Z,0.83
2022-09-07T10:19:32.631Z,0.90
2022-09-07T10:22:48.480Z,0.70
2022-09-07T10:25:59.087Z,0.80
2022-09-07T10:29:17.408Z,0.80
2022-09-07T10:32:43.235Z,0.70
2022-09-07T10:36:01.025Z,0.70
2022-09-07T10:39:18.527Z,0.93
2022-09-07T10:42:32.879Z,0.80
2022-09-07T10:46:00.129Z,0.90
2022-09-07T10:49:27.429Z,0.70
2022-09-07T10:52:49.897Z,0.73
2022-09-07T10:56:09.846Z,0.80
2022-09-07T11:03:43.643Z,0.70
2022-09-07T11:07:01.494Z,0.70
2022-09-07T11:10:28.461Z,1.07
2022-09-07T11:14:11.323Z,0.70
2022-09-07T11:17:21.635Z,0.77
2022-09-07T11:20:35.559Z,0.80
2022-09-07T11:23:51.178Z,1.00
2022-09-07T11:27:05.091Z,0.90
2022-09-07T11:30:26.240Z,0.80
2022-09-07T11:33:42.145Z,0.80
2022-09-07T11:37:02.184Z,0.90
2022-09-07T11:40:22.697Z,1.00
2022-09-07T11:43:40.597Z,0.80
2022-09-07T11:46:56.393Z,0.50
2022-09-07T11:50:05.649Z,1.10
2022-09-07T11:53:21.383Z,1.00
2022-09-07T11:56:36.972Z,0.80
2022-09-07T12:00:03.186Z,0.87
2022-09-07T12:03:39.951Z,0.70
2022-09-07T12:07:24.835Z,0.70
2022-09-07T12:11:05.538Z,0.60
2022-09-07T12:14:32.148Z,0.90
2022-09-07T12:18:02.968Z,0.70
2022-09-07T12:21:41.373Z,0.60
2022-09-07T12:24:53.230Z,0.90
2022-09-07T12:28:05.315Z,0.80
2022-09-07T12:31:14.609Z,1.00
2022-09-07T12:35:01.306Z,0.60
2022-09-07T12:39:01.007Z,0.80
2022-09-07T12:42:33.122Z,0.90
2022-09-07T12:45:55.091Z,0.67
2022-09-07T12:49:16.819Z,0.80
2022-09-07T12:52:49.698Z,0.60
2022-09-07T12:56:19.931Z,0.60
2022-09-07T12:59:53.762Z,0.80
2022-09-07T13:07:29.908Z,0.60
2022-09-07T13:10:40.776Z,0.67
2022-09-07T13:14:04.564Z,0.60
2022-09-07T13:17:55.672Z,0.80
2022-09-07T13:21:43.048Z,0.60
2022-09-07T13:24:52.783Z,0.70
2022-09-07T13:28:04.442Z,0.80
2022-09-07T13:31:45.147Z,0.90
2022-09-07T13:35:17.499Z,0.70
2022-09-07T13:38:26.425Z,0.60
2022-09-07T13:41:42.724Z,0.63
2022-09-07T13:44:57.871Z,0.60
2022-09-07T13:48:20.386Z,0.77
2022-09-07T13:51:41.956Z,0.83
2022-09-07T13:55:09.386Z,0.67
2022-09-07T13:58:22.620Z,0.50
2022-09-07T14:01:31.392Z,0.60
2022-09-07T14:04:44.390Z,0.53
2022-09-07T14:07:54.027Z,0.60
2022-09-07T14:11:02.299Z,0.70
2022-09-07T14:14:16.647Z,0.80
2022-09-07T14:17:25.209Z,0.70
2022-09-07T14:20:43.246Z,0.77
2022-09-07T14:23:53.419Z,0.57
2022-09-07T14:27:03.049Z,0.90
2022-09-07T14:30:29.741Z,0.67
2022-09-07T14:33:38.733Z,0.77
2022-09-07T14:36:48.320Z,0.77
2022-09-07T14:39:59.536Z,0.60
2022-09-07T14:43:30.071Z,0.80
2022-09-07T14:46:40.829Z,0.80
2022-09-07T14:49:53.318Z,0.93
2022-09-07T14:56:40.828Z,0.73
2022-09-07T14:59:49.935Z,0.80
2022-09-07T15:02:58.615Z,0.90
2022-09-07T15:06:09.029Z,0.73
2022-09-07T15:09:31.671Z,0.60
2022-09-07T15:12:44.080Z,0.90
2022-09-07T15:16:04.707Z,0.60
2022-09-07T15:19:33.516Z,0.80
2022-09-07T15:22:42.008Z,0.60
2022-09-07T15:25:54.106Z,0.83
2022-09-07T15:29:11.813Z,0.97
2022-09-07T15:32:20.712Z,1.90
2022-09-07T15:35:29.204Z,0.93
2022-09-07T15:45:39.822Z,0.83
2022-09-07T15:48:52.416Z,1.43
2022-09-07T15:52:07.637Z,1.43
2022-09-07T15:55:17.663Z,1.20
2022-09-07T15:58:26.273Z,1.10
2022-09-07T16:01:52.539Z,1.20
2022-09-07T16:05:01.426Z,1.00
2022-09-07T16:08:25.978Z,0.80
2022-09-07T16:11:35.288Z,1.00
2022-09-07T16:14:43.657Z,1.10
2022-09-07T16:17:53.826Z,1.23
2022-09-07T16:21:12.201Z,1.37
2022-09-07T16:24:21.025Z,0.80
2022-09-07T16:27:32.206Z,1.00
2022-09-07T16:30:42.163Z,0.97
2022-09-07T16:33:52.287Z,1.30
2022-09-07T16:37:00.473Z,1.20
2022-09-07T16:40:10.179Z,1.10
2022-09-07T16:43:19.131Z,1.33
2022-09-07T16:46:30.769Z,1.40
2022-09-07T16:49:42.732Z,1.00
2022-09-07T16:52:51.368Z,1.27
2022-09-07T16:56:03.645Z,1.10
2022-09-07T16:59:19.611Z,1.10
2022-09-07T17:02:28.012Z,0.90
2022-09-07T17:05:41.184Z,1.00
2022-09-07T17:08:49.801Z,1.20
2022-09-07T17:11:58.350Z,1.10
2022-09-07T17:15:08.380Z,1.30
2022-09-07T17:18:16.720Z,1.13
2022-09-07T17:21:26.711Z,1.20
2022-09-07T17:24:34.853Z,0.87
2022-09-07T17:27:44.087Z,1.10
2022-09-07T17:30:52.364Z,1.20
2022-09-07T17:34:00.861Z,0.90
2022-09-07T17:37:10.352Z,1.10
2022-09-07T17:40:19.248Z,1.10
2022-09-07T17:43:53.594Z,1.47
2022-09-07T17:46:55.487Z,1.60
2022-09-07T17:50:04.748Z,1.87
2022-09-07T17:53:14.650Z,2.00
2022-09-07T17:56:23.133Z,3.00
2022-09-07T18:02:59.733Z,2.60
2022-09-07T18:06:08.974Z,2.00
2022-09-07T18:09:19.757Z,1.70
2022-09-07T18:12:28.054Z,1.50
2022-09-07T18:15:41.126Z,1.60
2022-09-07T18:18:50.185Z,1.63
2022-09-07T18:21:58.357Z,1.53
2022-09-07T18:25:10.361Z,1.40
2022-09-07T18:31:46.906Z,1.40
2022-09-07T18:34:55.083Z,1.40
2022-09-07T18:38:08.164Z,1.60
2022-09-07T18:41:18.297Z,1.33
2022-09-07T18:47:59.926Z,1.30
2022-09-07T18:51:11.719Z,1.43
2022-09-07T18:54:20.803Z,1.50
2022-09-07T18:57:32.223Z,1.47
2022-09-07T19:00:46.359Z,1.20
2022-09-07T19:03:58.097Z,1.50
2022-09-07T19:07:08.571Z,1.40
2022-09-07T19:10:17.833Z,1.70
2022-09-07T19:13:27.628Z,1.43
2022-09-07T19:16:39.390Z,1.50
2022-09-07T19:19:49.338Z,1.60
2022-09-07T19:22:58.708Z,1.50
2022-09-07T19:26:10.123Z,1.30
2022-09-07T19:29:23.419Z,1.53
2022-09-07T19:32:34.114Z,2.00
2022-09-07T19:35:43.010Z,2.03
2022-09-07T19:38:52.544Z,1.90
2022-09-07T19:42:01.831Z,1.60
2022-09-07T19:45:14.289Z,1.70
2022-09-07T19:48:23.513Z,1.93
2022-09-07T19:51:36.709Z,2.13
2022-09-07T19:54:46.129Z,1.70
2022-09-07T19:57:55.388Z,1.83
2022-09-07T20:01:14.923Z,1.60
2022-09-07T20:04:26.300Z,1.80
2022-09-07T20:07:35.399Z,1.70
2022-09-07T20:10:44.413Z,2.00
2022-09-07T20:13:53.642Z,2.00
2022-09-07T20:17:04.942Z,2.00
2022-09-07T20:20:14.644Z,2.40
2022-09-07T20:23:24.117Z,2.27
2022-09-07T20:26:34.096Z,1.87
2022-09-07T20:29:43.487Z,1.40
2022-09-07T20:32:54.140Z,1.80
2022-09-07T20:36:14.738Z,1.60
2022-09-07T20:39:24.708Z,1.60
2022-09-07T20:42:33.722Z,1.87
2022-09-07T20:45:42.353Z,2.23
2022-09-07T20:48:52.790Z,2.00
2022-09-07T20:52:01.925Z,2.30
2022-09-07T20:55:12.755Z,2.53
2022-09-07T20:58:21.719Z,2.30
2022-09-07T21:01:33.683Z,2.20
2022-09-07T21:04:43.947Z,1.97
2022-09-07T21:07:52.090Z,1.73
2022-09-07T21:11:05.409Z,2.33
2022-09-07T21:14:14.658Z,1.87
2022-09-07T21:17:23.123Z,1.70
2022-09-07T21:20:33.585Z,2.00
2022-09-07T21:23:41.845Z,2.40
2022-09-07T21:26:51.762Z,2.53
2022-09-07T21:30:00.144Z,2.33
2022-09-07T21:33:08.673Z,2.30
2022-09-07T21:36:18.413Z,2.57
2022-09-07T21:39:26.638Z,1.90
2022-09-07T21:42:35.122Z,2.00
2022-09-07T21:45:43.631Z,1.90
2022-09-07T21:48:52.177Z,1.97
2022-09-07T21:52:01.855Z,2.00
2022-09-07T21:55:10.780Z,1.77
2022-09-07T21:58:19.487Z,2.20
2022-09-07T22:01:30.121Z,2.20
2022-09-07T22:04:38.601Z,2.33
2022-09-07T22:07:48.321Z,2.37
2022-09-07T22:11:04.104Z,2.20
2022-09-07T22:14:15.689Z,2.03
2022-09-07T22:17:23.783Z,2.40
2022-09-07T22:20:32.224Z,2.20
2022-09-07T22:23:45.430Z,2.00
2022-09-07T22:26:54.309Z,2.20
2022-09-07T22:30:02.977Z,2.53
2022-09-07T22:33:11.285Z,2.20
2022-09-07T22:36:22.973Z,2.40
2022-09-07T22:39:32.720Z,2.20
2022-09-07T22:42:40.919Z,2.10
2022-09-07T22:45:49.012Z,1.90
2022-09-07T22:48:59.648Z,2.30
2022-09-07T22:52:07.771Z,2.30
2022-09-07T22:55:17.630Z,1.87
2022-09-07T22:58:28.906Z,2.23
2022-09-07T23:01:38.079Z,2.20
2022-09-07T23:04:46.558Z,2.50
2022-09-07T23:07:56.009Z,2.33
2022-09-07T23:11:06.500Z,2.33
2022-09-07T23:14:19.007Z,1.70
2022-09-07T23:17:27.356Z,1.93
2022-09-07T23:20:35.823Z,2.20
2022-09-07T23:23:44.275Z,1.93
2022-09-07T23:26:54.104Z,2.00
2022-09-07T23:30:02.690Z,1.93
2022-09-07T23:33:10.957Z,1.93
2022-09-07T23:36:20.090Z,2.00
2022-09-07T23:39:28.323Z,2.50
2022-09-07T23:42:38.103Z,2.60
2022-09-07T23:45:46.518Z,1.80
2022-09-07T23:48:54.964Z,1.90
2022-09-07T23:52:03.838Z,2.27
2022-09-07T23:55:13.312Z,2.03
2022-09-07T23:58:24.538Z,1.73
